sensor_id;sensor_type;location;lat;lon;timestamp;P1;durP1;ratioP1;P2;durP2;ratioP2
19635;SDS011;9965;50.774;7.188;2022-08-19T00:00:20;18.03;;;15.83;;
19635;SDS011;9965;50.774;7.188;2022-08-19T00:02:46;18.57;;;16.00;;
19635;SDS011;9965;50.774;7.188;2022-08-19T00:05:13;18.20;;;16.30;;
19635;SDS011;9965;50.774;7.188;2022-08-19T00:07:40;19.00;;;16.20;;
19635;SDS011;9965;50.774;7.188;2022-08-19T00:10:08;17.83;;;15.93;;
19635;SDS011;9965;50.774;7.188;2022-08-19T00:12:35;21.00;;;17.07;;
19635;SDS011;9965;50.774;7.188;2022-08-19T00:15:03;19.60;;;17.60;;
19635;SDS011;9965;50.774;7.188;2022-08-19T00:17:30;20.83;;;17.10;;
19635;SDS011;9965;50.774;7.188;2022-08-19T00:19:55;19.93;;;17.83;;
19635;SDS011;9965;50.774;7.188;2022-08-19T00:22:21;18.60;;;16.20;;
19635;SDS011;9965;50.774;7.188;2022-08-19T00:24:47;18.67;;;16.77;;
19635;SDS011;9965;50.774;7.188;2022-08-19T00:27:13;17.80;;;15.97;;
19635;SDS011;9965;50.774;7.188;2022-08-19T00:29:38;19.20;;;17.07;;
19635;SDS011;9965;50.774;7.188;2022-08-19T00:32:04;18.43;;;16.43;;
19635;SDS011;9965;50.774;7.188;2022-08-19T00:34:30;19.43;;;16.93;;
19635;SDS011;9965;50.774;7.188;2022-08-19T00:36:56;18.27;;;16.33;;
19635;SDS011;9965;50.774;7.188;2022-08-19T00:39:23;20.60;;;16.27;;
19635;SDS011;9965;50.774;7.188;2022-08-19T00:41:49;18.37;;;16.10;;
19635;SDS011;9965;50.774;7.188;2022-08-19T00:44:18;18.37;;;15.17;;
19635;SDS011;9965;50.774;7.188;2022-08-19T00:46:48;17.07;;;15.37;;
19635;SDS011;9965;50.774;7.188;2022-08-19T00:49:28;16.33;;;14.73;;
19635;SDS011;9965;50.774;7.188;2022-08-19T00:52:03;17.33;;;15.53;;
19635;SDS011;9965;50.774;7.188;2022-08-19T00:54:32;19.30;;;15.60;;
19635;SDS011;9965;50.774;7.188;2022-08-19T00:56:59;19.60;;;16.23;;
19635;SDS011;9965;50.774;7.188;2022-08-19T00:59:26;20.20;;;16.23;;
19635;SDS011;9965;50.774;7.188;2022-08-19T01:01:54;17.87;;;16.07;;
19635;SDS011;9965;50.774;7.188;2022-08-19T01:04:19;17.97;;;16.10;;
19635;SDS011;9965;50.774;7.188;2022-08-19T01:06:45;18.33;;;16.37;;
19635;SDS011;9965;50.774;7.188;2022-08-19T01:09:11;17.37;;;15.67;;
19635;SDS011;9965;50.774;7.188;2022-08-19T01:11:38;18.23;;;15.87;;
19635;SDS011;9965;50.774;7.188;2022-08-19T01:14:06;17.57;;;15.63;;
19635;SDS011;9965;50.774;7.188;2022-08-19T01:16:33;17.37;;;15.63;;
19635;SDS011;9965;50.774;7.188;2022-08-19T01:19:00;18.10;;;16.23;;
19635;SDS011;9965;50.774;7.188;2022-08-19T01:21:34;17.33;;;15.00;;
19635;SDS011;9965;50.774;7.188;2022-08-19T01:24:07;19.00;;;16.63;;
19635;SDS011;9965;50.774;7.188;2022-08-19T01:26:37;18.87;;;16.97;;
19635;SDS011;9965;50.774;7.188;2022-08-19T01:29:08;25.97;;;18.87;;
19635;SDS011;9965;50.774;7.188;2022-08-19T01:31:35;19.53;;;16.60;;
19635;SDS011;9965;50.774;7.188;2022-08-19T01:34:02;18.80;;;16.80;;
19635;SDS011;9965;50.774;7.188;2022-08-19T01:36:42;21.27;;;17.63;;
19635;SDS011;9965;50.774;7.188;2022-08-19T01:39:13;21.87;;;17.97;;
19635;SDS011;9965;50.774;7.188;2022-08-19T01:41:46;21.73;;;18.13;;
19635;SDS011;9965;50.774;7.188;2022-08-19T01:44:12;20.43;;;18.33;;
19635;SDS011;9965;50.774;7.188;2022-08-19T01:46:40;20.47;;;17.20;;
19635;SDS011;9965;50.774;7.188;2022-08-19T01:49:06;18.37;;;16.33;;
19635;SDS011;9965;50.774;7.188;2022-08-19T01:51:33;19.23;;;17.10;;
19635;SDS011;9965;50.774;7.188;2022-08-19T01:53:59;20.13;;;18.00;;
19635;SDS011;9965;50.774;7.188;2022-08-19T01:56:25;19.93;;;17.77;;
19635;SDS011;9965;50.774;7.188;2022-08-19T01:58:53;21.43;;;17.47;;
19635;SDS011;9965;50.774;7.188;2022-08-19T02:01:23;19.77;;;17.57;;
19635;SDS011;9965;50.774;7.188;2022-08-19T02:03:48;19.30;;;17.20;;
19635;SDS011;9965;50.774;7.188;2022-08-19T02:06:14;19.90;;;17.80;;
19635;SDS011;9965;50.774;7.188;2022-08-19T02:08:42;17.90;;;15.97;;
19635;SDS011;9965;50.774;7.188;2022-08-19T02:11:17;20.23;;;18.10;;
19635;SDS011;9965;50.774;7.188;2022-08-19T02:13:51;19.33;;;17.07;;
19635;SDS011;9965;50.774;7.188;2022-08-19T02:16:18;20.60;;;17.27;;
19635;SDS011;9965;50.774;7.188;2022-08-19T02:18:44;20.03;;;17.93;;
19635;SDS011;9965;50.774;7.188;2022-08-19T02:21:10;19.50;;;16.93;;
19635;SDS011;9965;50.774;7.188;2022-08-19T02:23:36;18.43;;;16.53;;
19635;SDS011;9965;50.774;7.188;2022-08-19T02:26:02;19.10;;;16.93;;
19635;SDS011;9965;50.774;7.188;2022-08-19T02:28:28;18.67;;;16.77;;
19635;SDS011;9965;50.774;7.188;2022-08-19T02:30:53;21.20;;;17.10;;
19635;SDS011;9965;50.774;7.188;2022-08-19T02:33:20;18.93;;;16.13;;
19635;SDS011;9965;50.774;7.188;2022-08-19T02:35:46;21.90;;;17.47;;
19635;SDS011;9965;50.774;7.188;2022-08-19T02:38:12;21.90;;;18.07;;
19635;SDS011;9965;50.774;7.188;2022-08-19T02:40:55;19.53;;;17.50;;
19635;SDS011;9965;50.774;7.188;2022-08-19T02:43:23;20.57;;;17.33;;
19635;SDS011;9965;50.774;7.188;2022-08-19T02:45:50;18.60;;;16.70;;
19635;SDS011;9965;50.774;7.188;2022-08-19T02:48:20;21.23;;;16.70;;
19635;SDS011;9965;50.774;7.188;2022-08-19T02:50:48;18.40;;;16.60;;
19635;SDS011;9965;50.774;7.188;2022-08-19T02:53:21;18.40;;;16.50;;
19635;SDS011;9965;50.774;7.188;2022-08-19T02:55:48;18.83;;;16.83;;
19635;SDS011;9965;50.774;7.188;2022-08-19T02:58:16;21.17;;;17.57;;
19635;SDS011;9965;50.774;7.188;2022-08-19T03:00:42;19.53;;;17.53;;
19635;SDS011;9965;50.774;7.188;2022-08-19T03:03:14;18.60;;;16.70;;
19635;SDS011;9965;50.774;7.188;2022-08-19T03:05:40;21.20;;;16.63;;
19635;SDS011;9965;50.774;7.188;2022-08-19T03:08:07;21.07;;;17.93;;
19635;SDS011;9965;50.774;7.188;2022-08-19T03:10:46;19.27;;;17.30;;
19635;SDS011;9965;50.774;7.188;2022-08-19T03:13:13;19.20;;;17.23;;
19635;SDS011;9965;50.774;7.188;2022-08-19T03:15:42;19.33;;;17.33;;
19635;SDS011;9965;50.774;7.188;2022-08-19T03:18:09;21.87;;;17.47;;
19635;SDS011;9965;50.774;7.188;2022-08-19T03:20:39;19.40;;;17.30;;
19635;SDS011;9965;50.774;7.188;2022-08-19T03:23:13;19.57;;;17.47;;
19635;SDS011;9965;50.774;7.188;2022-08-19T03:25:40;18.57;;;16.23;;
19635;SDS011;9965;50.774;7.188;2022-08-19T03:28:08;17.93;;;16.13;;
19635;SDS011;9965;50.774;7.188;2022-08-19T03:30:39;18.90;;;16.87;;
19635;SDS011;9965;50.774;7.188;2022-08-19T03:33:09;17.70;;;15.80;;
19635;SDS011;9965;50.774;7.188;2022-08-19T03:35:37;20.47;;;16.97;;
19635;SDS011;9965;50.774;7.188;2022-08-19T03:38:05;20.20;;;16.60;;
19635;SDS011;9965;50.774;7.188;2022-08-19T03:40:32;21.27;;;18.97;;
19635;SDS011;9965;50.774;7.188;2022-08-19T03:43:00;19.43;;;16.70;;
19635;SDS011;9965;50.774;7.188;2022-08-19T03:45:26;17.03;;;15.23;;
19635;SDS011;9965;50.774;7.188;2022-08-19T03:47:52;18.27;;;16.33;;
19635;SDS011;9965;50.774;7.188;2022-08-19T03:50:18;18.80;;;16.77;;
19635;SDS011;9965;50.774;7.188;2022-08-19T03:52:48;22.03;;;16.53;;
19635;SDS011;9965;50.774;7.188;2022-08-19T03:55:15;19.33;;;16.50;;
19635;SDS011;9965;50.774;7.188;2022-08-19T03:57:41;18.93;;;16.17;;
19635;SDS011;9965;50.774;7.188;2022-08-19T04:00:07;18.40;;;16.50;;
19635;SDS011;9965;50.774;7.188;2022-08-19T04:02:34;21.33;;;16.83;;
19635;SDS011;9965;50.774;7.188;2022-08-19T04:04:59;18.73;;;16.17;;
19635;SDS011;9965;50.774;7.188;2022-08-19T04:07:25;18.43;;;15.87;;
19635;SDS011;9965;50.774;7.188;2022-08-19T04:09:51;16.77;;;15.07;;
19635;SDS011;9965;50.774;7.188;2022-08-19T04:12:18;18.73;;;16.67;;
19635;SDS011;9965;50.774;7.188;2022-08-19T04:14:45;20.33;;;14.53;;
19635;SDS011;9965;50.774;7.188;2022-08-19T04:17:11;17.50;;;15.77;;
19635;SDS011;9965;50.774;7.188;2022-08-19T04:19:39;19.13;;;16.63;;
19635;SDS011;9965;50.774;7.188;2022-08-19T04:22:06;19.93;;;16.67;;
19635;SDS011;9965;50.774;7.188;2022-08-19T04:24:32;18.60;;;16.57;;
19635;SDS011;9965;50.774;7.188;2022-08-19T04:27:02;19.53;;;16.97;;
19635;SDS011;9965;50.774;7.188;2022-08-19T04:29:31;18.63;;;16.40;;
19635;SDS011;9965;50.774;7.188;2022-08-19T04:31:57;18.70;;;16.70;;
19635;SDS011;9965;50.774;7.188;2022-08-19T04:34:24;19.80;;;17.57;;
19635;SDS011;9965;50.774;7.188;2022-08-19T04:36:52;18.93;;;16.93;;
19635;SDS011;9965;50.774;7.188;2022-08-19T04:39:20;20.77;;;18.20;;
19635;SDS011;9965;50.774;7.188;2022-08-19T04:42:08;21.73;;;17.77;;
19635;SDS011;9965;50.774;7.188;2022-08-19T04:44:52;18.53;;;16.63;;
19635;SDS011;9965;50.774;7.188;2022-08-19T04:47:19;18.53;;;16.53;;
19635;SDS011;9965;50.774;7.188;2022-08-19T04:49:44;18.60;;;16.70;;
19635;SDS011;9965;50.774;7.188;2022-08-19T04:52:10;19.90;;;17.17;;
19635;SDS011;9965;50.774;7.188;2022-08-19T04:54:36;18.53;;;16.53;;
19635;SDS011;9965;50.774;7.188;2022-08-19T04:57:01;22.40;;;16.53;;
19635;SDS011;9965;50.774;7.188;2022-08-19T04:59:30;17.77;;;15.87;;
19635;SDS011;9965;50.774;7.188;2022-08-19T05:01:55;19.13;;;16.03;;
19635;SDS011;9965;50.774;7.188;2022-08-19T05:04:21;17.77;;;15.13;;
19635;SDS011;9965;50.774;7.188;2022-08-19T05:06:47;20.17;;;16.90;;
19635;SDS011;9965;50.774;7.188;2022-08-19T05:09:14;18.97;;;16.60;;
19635;SDS011;9965;50.774;7.188;2022-08-19T05:11:41;17.73;;;15.67;;
19635;SDS011;9965;50.774;7.188;2022-08-19T05:14:07;17.77;;;15.97;;
19635;SDS011;9965;50.774;7.188;2022-08-19T05:16:34;19.53;;;15.70;;
19635;SDS011;9965;50.774;7.188;2022-08-19T05:19:00;16.67;;;14.97;;
19635;SDS011;9965;50.774;7.188;2022-08-19T05:21:45;20.20;;;17.10;;
19635;SDS011;9965;50.774;7.188;2022-08-19T05:24:29;18.17;;;15.57;;
19635;SDS011;9965;50.774;7.188;2022-08-19T05:26:59;18.37;;;15.40;;
19635;SDS011;9965;50.774;7.188;2022-08-19T05:29:27;18.57;;;16.07;;
19635;SDS011;9965;50.774;7.188;2022-08-19T05:31:54;19.47;;;15.60;;
19635;SDS011;9965;50.774;7.188;2022-08-19T05:34:21;24.03;;;15.93;;
19635;SDS011;9965;50.774;7.188;2022-08-19T05:36:51;18.77;;;15.67;;
19635;SDS011;9965;50.774;7.188;2022-08-19T05:39:21;17.13;;;15.33;;
19635;SDS011;9965;50.774;7.188;2022-08-19T05:41:50;18.70;;;16.03;;
19635;SDS011;9965;50.774;7.188;2022-08-19T05:44:22;22.43;;;16.30;;
19635;SDS011;9965;50.774;7.188;2022-08-19T05:46:51;25.60;;;17.33;;
19635;SDS011;9965;50.774;7.188;2022-08-19T05:49:21;18.23;;;15.57;;
19635;SDS011;9965;50.774;7.188;2022-08-19T05:51:48;17.77;;;15.87;;
19635;SDS011;9965;50.774;7.188;2022-08-19T05:54:14;18.43;;;15.27;;
19635;SDS011;9965;50.774;7.188;2022-08-19T05:56:40;20.50;;;15.20;;
19635;SDS011;9965;50.774;7.188;2022-08-19T05:59:07;22.93;;;16.53;;
19635;SDS011;9965;50.774;7.188;2022-08-19T06:01:36;29.07;;;17.77;;
19635;SDS011;9965;50.774;7.188;2022-08-19T06:04:03;19.83;;;17.60;;
19635;SDS011;9965;50.774;7.188;2022-08-19T06:06:29;21.30;;;18.60;;
19635;SDS011;9965;50.774;7.188;2022-08-19T06:08:55;32.47;;;21.97;;
19635;SDS011;9965;50.774;7.188;2022-08-19T06:13:50;21.17;;;18.87;;
19635;SDS011;9965;50.774;7.188;2022-08-19T06:16:18;22.87;;;19.70;;
19635;SDS011;9965;50.774;7.188;2022-08-19T06:18:51;22.23;;;19.53;;
19635;SDS011;9965;50.774;7.188;2022-08-19T06:21:19;26.53;;;20.63;;
19635;SDS011;9965;50.774;7.188;2022-08-19T06:23:46;28.23;;;21.17;;
19635;SDS011;9965;50.774;7.188;2022-08-19T06:26:14;27.67;;;20.73;;
19635;SDS011;9965;50.774;7.188;2022-08-19T06:28:41;25.07;;;21.10;;
19635;SDS011;9965;50.774;7.188;2022-08-19T06:31:12;30.13;;;22.93;;
19635;SDS011;9965;50.774;7.188;2022-08-19T06:33:49;26.40;;;21.70;;
19635;SDS011;9965;50.774;7.188;2022-08-19T06:36:16;29.33;;;23.33;;
19635;SDS011;9965;50.774;7.188;2022-08-19T06:38:43;28.63;;;24.83;;
19635;SDS011;9965;50.774;7.188;2022-08-19T06:41:09;28.50;;;24.67;;
19635;SDS011;9965;50.774;7.188;2022-08-19T06:43:35;28.87;;;23.63;;
19635;SDS011;9965;50.774;7.188;2022-08-19T06:46:01;34.30;;;25.10;;
19635;SDS011;9965;50.774;7.188;2022-08-19T06:48:28;31.20;;;26.40;;
19635;SDS011;9965;50.774;7.188;2022-08-19T06:50:54;33.20;;;25.87;;
19635;SDS011;9965;50.774;7.188;2022-08-19T06:53:21;33.77;;;26.07;;
19635;SDS011;9965;50.774;7.188;2022-08-19T06:55:46;35.07;;;28.47;;
19635;SDS011;9965;50.774;7.188;2022-08-19T06:58:12;37.50;;;28.97;;
19635;SDS011;9965;50.774;7.188;2022-08-19T07:00:39;40.20;;;30.30;;
19635;SDS011;9965;50.774;7.188;2022-08-19T07:03:05;39.73;;;30.00;;
19635;SDS011;9965;50.774;7.188;2022-08-19T07:05:31;38.77;;;30.03;;
19635;SDS011;9965;50.774;7.188;2022-08-19T07:07:57;37.40;;;29.70;;
19635;SDS011;9965;50.774;7.188;2022-08-19T07:10:22;38.33;;;29.33;;
19635;SDS011;9965;50.774;7.188;2022-08-19T07:12:48;37.07;;;28.67;;
19635;SDS011;9965;50.774;7.188;2022-08-19T07:15:15;36.43;;;29.60;;
19635;SDS011;9965;50.774;7.188;2022-08-19T07:17:41;36.87;;;27.87;;
19635;SDS011;9965;50.774;7.188;2022-08-19T07:20:08;35.83;;;27.23;;
19635;SDS011;9965;50.774;7.188;2022-08-19T07:22:35;33.30;;;27.97;;
19635;SDS011;9965;50.774;7.188;2022-08-19T07:25:03;35.00;;;25.93;;
19635;SDS011;9965;50.774;7.188;2022-08-19T07:27:31;35.07;;;28.13;;
19635;SDS011;9965;50.774;7.188;2022-08-19T07:29:57;37.70;;;29.20;;
19635;SDS011;9965;50.774;7.188;2022-08-19T07:32:23;33.67;;;25.53;;
19635;SDS011;9965;50.774;7.188;2022-08-19T07:34:51;33.58;;;25.65;;
19635;SDS011;9965;50.774;7.188;2022-08-19T07:37:17;37.72;;;29.92;;
19635;SDS011;9965;50.774;7.188;2022-08-19T07:39:43;37.13;;;25.65;;
19635;SDS011;9965;50.774;7.188;2022-08-19T07:42:09;44.67;;;29.77;;
19635;SDS011;9965;50.774;7.188;2022-08-19T07:44:35;36.57;;;28.33;;
19635;SDS011;9965;50.774;7.188;2022-08-19T07:47:02;30.10;;;24.90;;
19635;SDS011;9965;50.774;7.188;2022-08-19T07:49:28;38.30;;;26.42;;
19635;SDS011;9965;50.774;7.188;2022-08-19T07:51:57;40.67;;;30.02;;
19635;SDS011;9965;50.774;7.188;2022-08-19T07:54:31;35.15;;;27.42;;
19635;SDS011;9965;50.774;7.188;2022-08-19T07:56:59;49.50;;;29.17;;
19635;SDS011;9965;50.774;7.188;2022-08-19T07:59:25;42.30;;;29.08;;
19635;SDS011;9965;50.774;7.188;2022-08-19T08:01:51;35.88;;;27.42;;
19635;SDS011;9965;50.774;7.188;2022-08-19T08:04:17;34.95;;;27.80;;
19635;SDS011;9965;50.774;7.188;2022-08-19T08:07:03;39.50;;;29.35;;
19635;SDS011;9965;50.774;7.188;2022-08-19T08:09:48;38.85;;;28.85;;
19635;SDS011;9965;50.774;7.188;2022-08-19T08:12:19;35.65;;;26.83;;
19635;SDS011;9965;50.774;7.188;2022-08-19T08:14:54;36.55;;;26.15;;
19635;SDS011;9965;50.774;7.188;2022-08-19T08:17:23;36.40;;;27.70;;
19635;SDS011;9965;50.774;7.188;2022-08-19T08:19:52;34.95;;;26.50;;
19635;SDS011;9965;50.774;7.188;2022-08-19T08:22:19;32.70;;;25.60;;
19635;SDS011;9965;50.774;7.188;2022-08-19T08:25:05;34.55;;;27.60;;
19635;SDS011;9965;50.774;7.188;2022-08-19T08:27:37;38.28;;;27.90;;
19635;SDS011;9965;50.774;7.188;2022-08-19T08:30:07;41.08;;;30.83;;
19635;SDS011;9965;50.774;7.188;2022-08-19T08:32:38;37.15;;;27.90;;
19635;SDS011;9965;50.774;7.188;2022-08-19T08:35:05;38.88;;;25.85;;
19635;SDS011;9965;50.774;7.188;2022-08-19T08:37:32;32.85;;;23.80;;
19635;SDS011;9965;50.774;7.188;2022-08-19T08:39:58;29.75;;;22.83;;
19635;SDS011;9965;50.774;7.188;2022-08-19T08:42:30;22.90;;;18.13;;
19635;SDS011;9965;50.774;7.188;2022-08-19T08:45:04;18.08;;;15.43;;
19635;SDS011;9965;50.774;7.188;2022-08-19T08:47:41;20.25;;;15.07;;
19635;SDS011;9965;50.774;7.188;2022-08-19T08:50:13;22.00;;;16.73;;
19635;SDS011;9965;50.774;7.188;2022-08-19T08:52:48;19.88;;;16.85;;
19635;SDS011;9965;50.774;7.188;2022-08-19T08:55:19;22.60;;;17.90;;
19635;SDS011;9965;50.774;7.188;2022-08-19T09:00:15;18.67;;;16.00;;
19635;SDS011;9965;50.774;7.188;2022-08-19T09:02:44;20.93;;;16.57;;
19635;SDS011;9965;50.774;7.188;2022-08-19T09:05:10;20.73;;;15.67;;
19635;SDS011;9965;50.774;7.188;2022-08-19T09:07:43;20.23;;;14.43;;
19635;SDS011;9965;50.774;7.188;2022-08-19T09:15:47;21.30;;;16.50;;
19635;SDS011;9965;50.774;7.188;2022-08-19T09:18:16;21.80;;;16.10;;
19635;SDS011;9965;50.774;7.188;2022-08-19T09:20:41;22.93;;;16.83;;
19635;SDS011;9965;50.774;7.188;2022-08-19T09:23:07;22.33;;;16.63;;
19635;SDS011;9965;50.774;7.188;2022-08-19T09:25:34;22.77;;;18.10;;
19635;SDS011;9965;50.774;7.188;2022-08-19T09:28:00;20.80;;;15.70;;
19635;SDS011;9965;50.774;7.188;2022-08-19T09:30:39;23.40;;;18.40;;
19635;SDS011;9965;50.774;7.188;2022-08-19T09:33:06;20.80;;;16.67;;
19635;SDS011;9965;50.774;7.188;2022-08-19T09:35:32;20.17;;;15.47;;
19635;SDS011;9965;50.774;7.188;2022-08-19T09:37:58;26.57;;;17.17;;
19635;SDS011;9965;50.774;7.188;2022-08-19T09:40:24;19.83;;;15.77;;
19635;SDS011;9965;50.774;7.188;2022-08-19T09:42:54;19.90;;;15.17;;
19635;SDS011;9965;50.774;7.188;2022-08-19T09:45:20;23.80;;;16.30;;
19635;SDS011;9965;50.774;7.188;2022-08-19T09:47:47;23.67;;;16.20;;
19635;SDS011;9965;50.774;7.188;2022-08-19T09:50:13;23.43;;;17.83;;
19635;SDS011;9965;50.774;7.188;2022-08-19T09:52:40;26.90;;;19.40;;
19635;SDS011;9965;50.774;7.188;2022-08-19T09:55:08;37.17;;;18.70;;
19635;SDS011;9965;50.774;7.188;2022-08-19T09:57:35;32.50;;;19.20;;
19635;SDS011;9965;50.774;7.188;2022-08-19T10:00:01;31.10;;;18.80;;
19635;SDS011;9965;50.774;7.188;2022-08-19T10:02:27;23.80;;;18.92;;
19635;SDS011;9965;50.774;7.188;2022-08-19T10:04:53;27.63;;;20.65;;
19635;SDS011;9965;50.774;7.188;2022-08-19T10:07:37;34.87;;;22.33;;
19635;SDS011;9965;50.774;7.188;2022-08-19T10:10:04;26.70;;;20.30;;
19635;SDS011;9965;50.774;7.188;2022-08-19T10:12:31;29.63;;;21.95;;
19635;SDS011;9965;50.774;7.188;2022-08-19T10:14:58;25.42;;;20.13;;
19635;SDS011;9965;50.774;7.188;2022-08-19T10:17:24;29.10;;;20.33;;
19635;SDS011;9965;50.774;7.188;2022-08-19T10:19:51;29.48;;;20.38;;
19635;SDS011;9965;50.774;7.188;2022-08-19T10:22:17;25.38;;;18.75;;
19635;SDS011;9965;50.774;7.188;2022-08-19T10:24:43;25.38;;;18.50;;
19635;SDS011;9965;50.774;7.188;2022-08-19T10:27:11;27.73;;;22.15;;
19635;SDS011;9965;50.774;7.188;2022-08-19T10:29:38;25.48;;;19.98;;
19635;SDS011;9965;50.774;7.188;2022-08-19T10:32:04;26.85;;;19.25;;
19635;SDS011;9965;50.774;7.188;2022-08-19T10:34:32;27.98;;;22.15;;
19635;SDS011;9965;50.774;7.188;2022-08-19T10:37:00;33.95;;;21.27;;
19635;SDS011;9965;50.774;7.188;2022-08-19T10:39:26;30.85;;;23.20;;
19635;SDS011;9965;50.774;7.188;2022-08-19T10:41:56;35.35;;;26.38;;
19635;SDS011;9965;50.774;7.188;2022-08-19T10:44:22;34.83;;;24.55;;
19635;SDS011;9965;50.774;7.188;2022-08-19T10:46:49;28.48;;;22.48;;
19635;SDS011;9965;50.774;7.188;2022-08-19T10:49:15;25.85;;;20.95;;
19635;SDS011;9965;50.774;7.188;2022-08-19T10:51:41;33.38;;;23.30;;
19635;SDS011;9965;50.774;7.188;2022-08-19T10:54:26;27.75;;;19.33;;
19635;SDS011;9965;50.774;7.188;2022-08-19T10:57:12;27.70;;;19.73;;
19635;SDS011;9965;50.774;7.188;2022-08-19T10:59:39;25.67;;;21.10;;
19635;SDS011;9965;50.774;7.188;2022-08-19T11:02:06;34.55;;;23.45;;
19635;SDS011;9965;50.774;7.188;2022-08-19T11:04:35;33.25;;;22.08;;
19635;SDS011;9965;50.774;7.188;2022-08-19T11:07:03;26.67;;;20.65;;
19635;SDS011;9965;50.774;7.188;2022-08-19T11:09:29;21.38;;;18.85;;
19635;SDS011;9965;50.774;7.188;2022-08-19T11:11:56;22.77;;;19.45;;
19635;SDS011;9965;50.774;7.188;2022-08-19T11:14:22;25.83;;;18.58;;
19635;SDS011;9965;50.774;7.188;2022-08-19T11:16:50;23.95;;;17.95;;
19635;SDS011;9965;50.774;7.188;2022-08-19T11:19:21;25.10;;;18.10;;
19635;SDS011;9965;50.774;7.188;2022-08-19T11:21:49;22.33;;;18.52;;
19635;SDS011;9965;50.774;7.188;2022-08-19T11:24:18;22.20;;;17.67;;
19635;SDS011;9965;50.774;7.188;2022-08-19T11:26:49;22.45;;;17.42;;
19635;SDS011;9965;50.774;7.188;2022-08-19T11:29:17;17.20;;;14.73;;
19635;SDS011;9965;50.774;7.188;2022-08-19T11:31:46;22.95;;;16.50;;
19635;SDS011;9965;50.774;7.188;2022-08-19T11:34:16;18.40;;;14.20;;
19635;SDS011;9965;50.774;7.188;2022-08-19T11:36:45;22.30;;;15.25;;
19635;SDS011;9965;50.774;7.188;2022-08-19T11:39:13;17.02;;;15.23;;
19635;SDS011;9965;50.774;7.188;2022-08-19T11:41:40;14.65;;;13.02;;
19635;SDS011;9965;50.774;7.188;2022-08-19T11:44:07;21.05;;;14.45;;
19635;SDS011;9965;50.774;7.188;2022-08-19T11:46:33;18.40;;;13.27;;
19635;SDS011;9965;50.774;7.188;2022-08-19T11:49:00;16.83;;;14.93;;
19635;SDS011;9965;50.774;7.188;2022-08-19T11:51:26;21.58;;;15.85;;
19635;SDS011;9965;50.774;7.188;2022-08-19T11:53:53;15.82;;;14.20;;
19635;SDS011;9965;50.774;7.188;2022-08-19T11:56:20;16.02;;;13.80;;
19635;SDS011;9965;50.774;7.188;2022-08-19T11:58:47;15.90;;;14.15;;
19635;SDS011;9965;50.774;7.188;2022-08-19T12:01:14;16.98;;;14.05;;
19635;SDS011;9965;50.774;7.188;2022-08-19T12:03:41;18.75;;;14.30;;
19635;SDS011;9965;50.774;7.188;2022-08-19T12:06:10;20.30;;;13.07;;
19635;SDS011;9965;50.774;7.188;2022-08-19T12:08:38;16.50;;;13.18;;
19635;SDS011;9965;50.774;7.188;2022-08-19T12:11:05;16.50;;;13.43;;
19635;SDS011;9965;50.774;7.188;2022-08-19T12:13:35;24.52;;;14.20;;
19635;SDS011;9965;50.774;7.188;2022-08-19T12:16:09;18.58;;;13.55;;
19635;SDS011;9965;50.774;7.188;2022-08-19T12:18:40;15.52;;;11.88;;
19635;SDS011;9965;50.774;7.188;2022-08-19T12:21:08;11.95;;;10.70;;
19635;SDS011;9965;50.774;7.188;2022-08-19T12:23:36;24.08;;;13.05;;
19635;SDS011;9965;50.774;7.188;2022-08-19T12:26:02;17.42;;;12.07;;
19635;SDS011;9965;50.774;7.188;2022-08-19T12:28:28;20.58;;;12.45;;
19635;SDS011;9965;50.774;7.188;2022-08-19T12:30:55;18.75;;;11.18;;
19635;SDS011;9965;50.774;7.188;2022-08-19T12:33:21;15.02;;;11.80;;
19635;SDS011;9965;50.774;7.188;2022-08-19T12:35:50;12.10;;;10.82;;
19635;SDS011;9965;50.774;7.188;2022-08-19T12:38:16;13.77;;;10.27;;
19635;SDS011;9965;50.774;7.188;2022-08-19T12:40:45;13.68;;;11.25;;
19635;SDS011;9965;50.774;7.188;2022-08-19T12:43:12;11.38;;;10.23;;
19635;SDS011;9965;50.774;7.188;2022-08-19T12:45:39;13.93;;;11.02;;
19635;SDS011;9965;50.774;7.188;2022-08-19T12:48:04;14.75;;;9.77;;
19635;SDS011;9965;50.774;7.188;2022-08-19T12:50:30;14.45;;;9.82;;
19635;SDS011;9965;50.774;7.188;2022-08-19T12:52:56;13.43;;;10.35;;
19635;SDS011;9965;50.774;7.188;2022-08-19T12:55:22;14.38;;;10.60;;
19635;SDS011;9965;50.774;7.188;2022-08-19T12:57:48;12.43;;;11.02;;
19635;SDS011;9965;50.774;7.188;2022-08-19T13:00:17;14.90;;;9.43;;
19635;SDS011;9965;50.774;7.188;2022-08-19T13:02:46;14.45;;;9.80;;
19635;SDS011;9965;50.774;7.188;2022-08-19T13:05:23;12.93;;;9.38;;
19635;SDS011;9965;50.774;7.188;2022-08-19T13:07:50;15.98;;;10.55;;
19635;SDS011;9965;50.774;7.188;2022-08-19T13:10:21;14.80;;;11.27;;
19635;SDS011;9965;50.774;7.188;2022-08-19T13:12:49;14.13;;;9.88;;
19635;SDS011;9965;50.774;7.188;2022-08-19T13:15:16;11.80;;;8.80;;
19635;SDS011;9965;50.774;7.188;2022-08-19T13:17:45;15.77;;;9.95;;
19635;SDS011;9965;50.774;7.188;2022-08-19T13:20:14;9.85;;;8.85;;
19635;SDS011;9965;50.774;7.188;2022-08-19T13:22:41;16.65;;;9.48;;
19635;SDS011;9965;50.774;7.188;2022-08-19T13:25:07;14.13;;;10.55;;
19635;SDS011;9965;50.774;7.188;2022-08-19T13:27:34;12.32;;;10.32;;
19635;SDS011;9965;50.774;7.188;2022-08-19T13:30:01;12.43;;;10.13;;
19635;SDS011;9965;50.774;7.188;2022-08-19T13:32:47;10.55;;;8.80;;
19635;SDS011;9965;50.774;7.188;2022-08-19T13:35:31;11.18;;;9.35;;
19635;SDS011;9965;50.774;7.188;2022-08-19T13:37:57;11.90;;;10.30;;
19635;SDS011;9965;50.774;7.188;2022-08-19T13:40:23;9.88;;;8.68;;
19635;SDS011;9965;50.774;7.188;2022-08-19T13:42:52;16.40;;;8.80;;
19635;SDS011;9965;50.774;7.188;2022-08-19T13:45:21;10.18;;;8.75;;
19635;SDS011;9965;50.774;7.188;2022-08-19T13:47:50;11.40;;;8.68;;
19635;SDS011;9965;50.774;7.188;2022-08-19T13:50:17;12.40;;;8.60;;
19635;SDS011;9965;50.774;7.188;2022-08-19T13:52:45;11.23;;;9.40;;
19635;SDS011;9965;50.774;7.188;2022-08-19T13:55:12;13.35;;;10.15;;
19635;SDS011;9965;50.774;7.188;2022-08-19T13:57:39;10.98;;;9.45;;
19635;SDS011;9965;50.774;7.188;2022-08-19T14:00:07;10.38;;;8.82;;
19635;SDS011;9965;50.774;7.188;2022-08-19T14:02:39;10.30;;;8.70;;
19635;SDS011;9965;50.774;7.188;2022-08-19T14:05:06;14.52;;;9.38;;
19635;SDS011;9965;50.774;7.188;2022-08-19T14:07:34;14.98;;;10.43;;
19635;SDS011;9965;50.774;7.188;2022-08-19T14:10:01;13.85;;;10.15;;
19635;SDS011;9965;50.774;7.188;2022-08-19T14:12:29;14.05;;;10.70;;
19635;SDS011;9965;50.774;7.188;2022-08-19T14:14:56;13.30;;;9.07;;
19635;SDS011;9965;50.774;7.188;2022-08-19T14:17:22;11.70;;;8.45;;
19635;SDS011;9965;50.774;7.188;2022-08-19T14:19:50;11.18;;;8.07;;
19635;SDS011;9965;50.774;7.188;2022-08-19T14:22:32;9.95;;;7.93;;
19635;SDS011;9965;50.774;7.188;2022-08-19T14:24:58;9.00;;;7.38;;
19635;SDS011;9965;50.774;7.188;2022-08-19T14:27:24;9.60;;;7.75;;
19635;SDS011;9965;50.774;7.188;2022-08-19T14:29:50;11.00;;;7.10;;
19635;SDS011;9965;50.774;7.188;2022-08-19T14:32:16;14.35;;;7.35;;
19635;SDS011;9965;50.774;7.188;2022-08-19T14:34:42;13.15;;;7.38;;
19635;SDS011;9965;50.774;7.188;2022-08-19T14:37:11;11.95;;;6.72;;
19635;SDS011;9965;50.774;7.188;2022-08-19T14:39:39;8.40;;;6.07;;
19635;SDS011;9965;50.774;7.188;2022-08-19T14:42:10;10.77;;;8.02;;
19635;SDS011;9965;50.774;7.188;2022-08-19T14:44:36;10.20;;;7.93;;
19635;SDS011;9965;50.774;7.188;2022-08-19T14:47:02;13.63;;;8.38;;
19635;SDS011;9965;50.774;7.188;2022-08-19T14:49:28;11.70;;;8.70;;
19635;SDS011;9965;50.774;7.188;2022-08-19T14:51:54;12.23;;;8.63;;